Time;durP1;ratioP1;P1;durP2;ratioP2;P2;SDS_P1;SDS_P2;PMS_P1;PMS_P2;Temp;Humidity;BMP_temperature;BMP_pressure;BME280_temperature;BME280_humidity;BME280_pressure;Samples;Min_cycle;Max_cycle;Signal;HPM_P1;HPM_P2
2023/09/12 00:01:32;;;;;;;;;;;24.60;71.80;;;;;;5072931;28;19920;-67
2023/09/12 00:03:58;;;;;;;;;;;24.60;71.80;;;;;;5073193;28;19995;-67
2023/09/12 00:06:23;;;;;;;;;;;24.60;71.80;;;;;;5107101;28;20380;-67
2023/09/12 00:08:49;;;;;;;;;;;24.50;71.80;;;;;;5106593;28;19920;-67
2023/09/12 00:11:14;;;;;;;;;;;24.60;71.80;;;;;;5073064;28;19927;-67
2023/09/12 00:13:40;;;;;;;;;;;24.60;71.90;;;;;;5073889;28;20295;-67
2023/09/12 00:16:09;;;;;;;;;;;24.50;71.80;;;;;;5073873;28;19921;-67
2023/09/12 00:18:34;;;;;;;;;;;24.50;71.80;;;;;;5106361;28;20004;-67
2023/09/12 00:21:00;;;;;;;;;;;24.60;71.90;;;;;;5073842;28;20299;-67
2023/09/12 00:23:26;;;;;;;;;;;24.60;71.80;;;;;;5106305;28;19927;-68
2023/09/12 00:25:52;;;;;;;;;;;24.50;71.80;;;;;;5106354;28;20331;-67
2023/09/12 00:28:17;;;;;;;;;;;24.60;71.90;;;;;;5073607;28;19920;-68
2023/09/12 00:30:43;;;;;;;;;;;24.60;71.80;;;;;;5106706;28;19925;-67
2023/09/12 00:33:08;;;;;;;;;;;24.50;71.90;;;;;;5073668;28;20279;-67
2023/09/12 00:35:34;;;;;;;;;;;24.50;71.80;;;;;;5106107;28;19920;-67
2023/09/12 00:37:59;;;;;;;;;;;24.50;71.80;;;;;;5106447;28;19932;-67
2023/09/12 00:40:25;;;;;;;;;;;24.50;71.90;;;;;;5106132;28;20493;-67
2023/09/12 00:42:50;;;;;;;;;;;24.50;71.80;;;;;;5073292;28;19928;-67
2023/09/12 00:45:16;;;;;;;;;;;24.50;71.80;;;;;;5106263;28;19924;-67
2023/09/12 00:47:41;;;;;;;;;;;24.50;71.80;;;;;;5105975;28;19927;-68
2023/09/12 00:50:08;;;;;;;;;;;24.50;71.80;;;;;;5105846;28;20042;-67
2023/09/12 00:52:34;;;;;;;;;;;24.50;71.80;;;;;;5073184;28;19921;-68
2023/09/12 00:55:00;;;;;;;;;;;24.50;71.80;;;;;;5072826;28;19924;-67
2023/09/12 00:57:26;;;;;;;;;;;24.50;71.80;;;;;;5105975;28;19960;-67
2023/09/12 00:59:52;;;;;;;;;;;24.50;71.90;;;;;;5072928;28;20403;-67
2023/09/12 01:02:18;;;;;;;;;;;24.50;71.90;;;;;;5105791;28;19920;-68
2023/09/12 01:04:47;;;;;;;;;;;24.50;71.80;;;;;;5105824;28;20003;-68
2023/09/12 01:07:12;;;;;;;;;;;24.50;71.90;;;;;;5105569;28;19920;-67
2023/09/12 01:09:40;;;;;;;;;;;24.50;71.80;;;;;;5105685;28;20023;-67
2023/09/12 01:12:05;;;;;;;;;;;24.50;71.80;;;;;;5105762;28;20015;-67
2023/09/12 01:14:31;;;;;;;;;;;24.50;71.80;;;;;;5105398;28;20023;-68
2023/09/12 01:16:57;;;;;;;;;;;24.50;71.90;;;;;;5071549;28;20375;-68
2023/09/12 01:19:23;;;;;;;;;;;24.50;71.80;;;;;;5071390;28;19927;-68
2023/09/12 01:22:08;;;;;;;;;;;24.40;71.80;;;;;;5072826;28;19973;-68
2023/09/12 01:29:57;;;;;;;;;;;24.50;71.80;;;;;;5110291;27;19986;-66
2023/09/12 01:32:23;;;;;;;;;;;24.50;71.80;;;;;;5109015;28;20410;-66
2023/09/12 01:34:48;;;;;;;;;;;24.40;71.80;;;;;;5110167;28;19963;-66
2023/09/12 01:37:14;;;;;;;;;;;24.40;71.80;;;;;;5108929;28;19969;-66
2023/09/12 01:39:40;;;;;;;;;;;24.40;71.80;;;;;;5109030;28;19927;-66
2023/09/12 01:42:06;;;;;;;;;;;24.40;71.80;;;;;;5109178;28;20403;-66
2023/09/12 01:44:33;;;;;;;;;;;24.40;71.80;;;;;;5108764;28;20393;-66
2023/09/12 01:47:02;;;;;;;;;;;24.40;71.80;;;;;;5108651;28;19927;-66
2023/09/12 01:49:28;;;;;;;;;;;24.40;71.80;;;;;;5108838;28;19932;-66
2023/09/12 01:51:54;;;;;;;;;;;24.40;71.80;;;;;;5109902;28;19928;-66
2023/09/12 01:54:20;;;;;;;;;;;24.40;71.80;;;;;;5108529;28;19920;-66
2023/09/12 01:56:45;;;;;;;;;;;24.40;71.80;;;;;;5109775;28;19981;-66
2023/09/12 01:59:11;;;;;;;;;;;24.40;72.60;;;;;;5108742;28;19920;-66
2023/09/12 02:01:36;;;;;;;;;;;24.40;71.80;;;;;;5108679;28;19920;-66
2023/09/12 02:04:02;;;;;;;;;;;24.40;71.80;;;;;;5108652;28;19935;-66
2023/09/12 02:06:27;;;;;;;;;;;24.30;71.80;;;;;;5108515;28;20026;-66
2023/09/12 02:08:53;;;;;;;;;;;24.40;71.80;;;;;;5108224;28;19930;-66
2023/09/12 02:11:18;;;;;;;;;;;24.30;71.70;;;;;;5108343;28;19938;-66
2023/09/12 02:13:44;;;;;;;;;;;24.40;71.80;;;;;;5108574;28;19920;-66
2023/09/12 02:16:09;;;;;;;;;;;24.30;71.70;;;;;;5108611;28;19920;-66
2023/09/12 02:18:35;;;;;;;;;;;24.30;71.80;;;;;;5109563;28;19920;-66
2023/09/12 02:21:00;;;;;;;;;;;24.30;72.50;;;;;;5108073;28;19920;-66
2023/09/12 02:23:25;;;;;;;;;;;24.30;71.80;;;;;;5108372;28;19927;-66
2023/09/12 02:25:51;;;;;;;;;;;24.30;71.80;;;;;;5108333;28;20202;-66
2023/09/12 02:28:16;;;;;;;;;;;24.30;71.80;;;;;;5115767;28;20008;-66
2023/09/12 02:30:42;;;;;;;;;;;24.30;71.80;;;;;;5111660;28;20022;-66
2023/09/12 02:33:07;;;;;;;;;;;24.30;71.80;;;;;;5111133;28;19924;-66
2023/09/12 02:35:33;;;;;;;;;;;24.30;71.90;;;;;;5129599;28;20348;-66
2023/09/12 02:37:58;;;;;;;;;;;24.20;71.80;;;;;;5111130;28;19924;-66
2023/09/12 02:40:24;;;;;;;;;;;24.30;71.80;;;;;;5120671;28;19920;-66
2023/09/12 02:42:49;;;;;;;;;;;24.20;71.80;;;;;;5097313;28;20370;-66
2023/09/12 02:45:15;;;;;;;;;;;24.20;71.80;;;;;;5097718;28;19960;-66
2023/09/12 02:47:43;;;;;;;;;;;24.30;71.90;;;;;;5115472;28;20002;-66
2023/09/12 02:50:08;;;;;;;;;;;24.30;71.90;;;;;;5097638;28;19923;-66
2023/09/12 02:52:34;;;;;;;;;;;24.30;71.90;;;;;;5131389;27;19942;-66
2023/09/12 02:54:59;;;;;;;;;;;24.20;71.80;;;;;;5097563;28;19968;-66
2023/09/12 02:57:25;;;;;;;;;;;24.20;71.80;;;;;;5131215;27;19923;-66
2023/09/12 02:59:50;;;;;;;;;;;24.20;71.80;;;;;;5115342;28;19919;-66
2023/09/12 03:02:16;;;;;;;;;;;24.30;71.90;;;;;;5097267;28;20362;-67
2023/09/12 03:04:41;;;;;;;;;;;24.20;71.90;;;;;;5115278;28;20006;-66
2023/09/12 03:07:07;;;;;;;;;;;24.30;71.90;;;;;;5097260;28;19927;-66
2023/09/12 03:09:32;;;;;;;;;;;24.20;71.90;;;;;;5096650;28;19928;-66
2023/09/12 03:12:00;;;;;;;;;;;24.20;71.80;;;;;;5097099;28;19972;-66
2023/09/12 03:14:27;;;;;;;;;;;24.20;71.80;;;;;;5115008;28;20362;-66
2023/09/12 03:16:52;;;;;;;;;;;24.20;71.90;;;;;;5115008;28;19920;-66
2023/09/12 03:19:18;;;;;;;;;;;24.20;71.90;;;;;;5097103;28;20431;-66
2023/09/12 03:21:43;;;;;;;;;;;24.20;71.90;;;;;;5114940;28;19966;-66
2023/09/12 03:24:09;;;;;;;;;;;24.20;71.90;;;;;;5097013;28;19920;-66
2023/09/12 03:26:35;;;;;;;;;;;24.20;72.30;;;;;;5096598;28;20454;-66
2023/09/12 03:29:01;;;;;;;;;;;24.20;71.90;;;;;;5114619;28;19924;-66
2023/09/12 03:31:28;;;;;;;;;;;24.20;71.90;;;;;;5114906;28;19965;-66
2023/09/12 03:33:54;;;;;;;;;;;24.20;71.90;;;;;;5114799;28;19920;-66
2023/09/12 03:36:19;;;;;;;;;;;24.20;71.90;;;;;;5114813;28;19926;-66
2023/09/12 03:38:45;;;;;;;;;;;24.10;71.80;;;;;;5114622;28;19920;-66
2023/09/12 03:41:11;;;;;;;;;;;24.20;71.90;;;;;;5096240;28;19920;-66
2023/09/12 03:43:36;;;;;;;;;;;24.10;71.80;;;;;;5096144;28;19926;-66
2023/09/12 03:46:03;;;;;;;;;;;24.10;71.90;;;;;;5096456;28;19920;-66
2023/09/12 03:48:30;;;;;;;;;;;24.10;71.90;;;;;;5114330;28;20061;-66
2023/09/12 03:50:56;;;;;;;;;;;24.20;71.90;;;;;;5095903;28;19930;-66
2023/09/12 03:53:21;;;;;;;;;;;24.10;71.90;;;;;;5095608;28;20006;-66
2023/09/12 03:55:47;;;;;;;;;;;24.10;71.90;;;;;;5095930;28;19923;-66
2023/09/12 03:58:12;;;;;;;;;;;24.10;71.90;;;;;;5096203;28;19923;-66
2023/09/12 04:00:38;;;;;;;;;;;24.10;71.90;;;;;;5096114;28;20015;-66
2023/09/12 04:03:03;;;;;;;;;;;24.10;71.90;;;;;;5114356;28;20123;-66
2023/09/12 04:05:29;;;;;;;;;;;24.10;71.90;;;;;;5114084;28;20436;-66
2023/09/12 04:07:54;;;;;;;;;;;24.10;71.90;;;;;;5095782;28;19923;-66
2023/09/12 04:10:20;;;;;;;;;;;24.10;71.90;;;;;;5095983;28;19945;-66
2023/09/12 04:12:45;;;;;;;;;;;24.10;71.90;;;;;;5095736;28;19920;-66
2023/09/12 04:15:11;;;;;;;;;;;24.10;71.90;;;;;;5096118;28;19979;-66
2023/09/12 04:17:36;;;;;;;;;;;24.10;71.90;;;;;;5130063;27;20019;-67
2023/09/12 04:20:04;;;;;;;;;;;24.10;71.90;;;;;;5113774;28;19927;-66
2023/09/12 04:22:29;;;;;;;;;;;24.10;71.90;;;;;;5095646;28;19927;-66
2023/09/12 04:24:55;;;;;;;;;;;24.10;71.90;;;;;;5129964;27;19919;-66
2023/09/12 04:27:20;;;;;;;;;;;24.10;71.90;;;;;;5095663;28;20362;-66
2023/09/12 04:29:46;;;;;;;;;;;24.10;71.90;;;;;;5094997;28;19923;-66
2023/09/12 04:32:11;;;;;;;;;;;24.10;71.90;;;;;;5113507;28;20320;-69
2023/09/12 04:34:37;;;;;;;;;;;24.00;71.90;;;;;;5113735;28;19970;-66
2023/09/12 04:37:03;;;;;;;;;;;24.10;71.90;;;;;;5113616;28;19926;-66
2023/09/12 04:39:28;;;;;;;;;;;24.10;72.00;;;;;;5095215;28;20497;-66
2023/09/12 04:41:54;;;;;;;;;;;24.10;71.90;;;;;;5095420;28;19920;-66
2023/09/12 04:44:19;;;;;;;;;;;24.00;71.90;;;;;;5095115;28;19923;-66
2023/09/12 04:46:46;;;;;;;;;;;24.00;71.90;;;;;;5128482;27;19920;-66
2023/09/12 04:49:11;;;;;;;;;;;24.00;71.90;;;;;;5095117;28;19924;-66
2023/09/12 04:51:37;;;;;;;;;;;24.00;71.90;;;;;;5095235;28;19945;-66
2023/09/12 04:54:02;;;;;;;;;;;24.00;71.90;;;;;;5113238;28;19926;-66
2023/09/12 04:56:28;;;;;;;;;;;24.00;71.90;;;;;;5113094;28;19974;-66
2023/09/12 04:58:53;;;;;;;;;;;24.00;71.90;;;;;;5129306;27;19927;-66
2023/09/12 05:01:19;;;;;;;;;;;24.00;71.90;;;;;;5112984;28;20294;-66
2023/09/12 05:03:45;;;;;;;;;;;24.00;71.90;;;;;;5112797;28;19920;-67
2023/09/12 05:06:12;;;;;;;;;;;24.00;71.90;;;;;;5095075;28;19919;-66
2023/09/12 05:08:38;;;;;;;;;;;23.90;71.90;;;;;;5094866;28;20750;-66
2023/09/12 05:11:03;;;;;;;;;;;23.90;71.90;;;;;;5094802;28;20006;-66
2023/09/12 05:13:29;;;;;;;;;;;23.90;71.90;;;;;;5112898;28;19920;-66
2023/09/12 05:15:56;;;;;;;;;;;24.00;71.90;;;;;;5112899;28;20286;-67
2023/09/12 05:18:21;;;;;;;;;;;23.90;71.90;;;;;;5094630;28;19927;-66
2023/09/12 05:20:47;;;;;;;;;;;23.90;71.90;;;;;;5113121;28;19920;-66
2023/09/12 05:23:12;;;;;;;;;;;23.90;71.90;;;;;;5094823;28;19920;-66
2023/09/12 05:25:38;;;;;;;;;;;23.90;71.90;;;;;;5094600;28;19946;-66
2023/09/12 05:28:04;;;;;;;;;;;23.90;71.90;;;;;;5108599;28;19981;-66
2023/09/12 05:30:30;;;;;;;;;;;23.90;71.90;;;;;;5115601;28;19969;-72
2023/09/12 05:32:55;;;;;;;;;;;23.90;71.90;;;;;;5094126;28;19919;-66
2023/09/12 05:35:21;;;;;;;;;;;23.90;71.80;;;;;;5093822;28;19920;-66
2023/09/12 05:37:47;;;;;;;;;;;23.90;71.90;;;;;;5111942;28;19927;-66
2023/09/12 05:40:12;;;;;;;;;;;23.80;71.80;;;;;;5092687;28;20320;-72
2023/09/12 05:42:37;;;;;;;;;;;23.80;71.80;;;;;;5111309;28;19923;-65
2023/09/12 05:45:03;;;;;;;;;;;23.80;71.80;;;;;;5110532;28;19985;-66
2023/09/12 05:47:29;;;;;;;;;;;23.80;71.90;;;;;;5111582;28;19927;-66
2023/09/12 05:49:55;;;;;;;;;;;23.70;71.90;;;;;;5109274;28;19927;-65
2023/09/12 05:52:21;;;;;;;;;;;23.70;72.00;;;;;;5111197;28;20006;-66
2023/09/12 05:54:46;;;;;;;;;;;23.70;72.10;;;;;;5090860;28;20053;-70
2023/09/12 05:57:12;;;;;;;;;;;23.70;72.20;;;;;;5083809;28;20393;-67
2023/09/12 05:59:38;;;;;;;;;;;23.60;72.20;;;;;;5072003;28;19920;-66
2023/09/12 06:02:04;;;;;;;;;;;23.60;72.20;;;;;;5066111;28;20542;-72
2023/09/12 06:04:30;;;;;;;;;;;23.60;72.30;;;;;;5071592;28;20432;-67
2023/09/12 06:06:55;;;;;;;;;;;23.60;72.40;;;;;;5087625;28;19965;-67
2023/09/12 06:09:21;;;;;;;;;;;23.60;72.40;;;;;;5115764;28;19923;-67
2023/09/12 06:11:46;;;;;;;;;;;23.50;72.50;;;;;;5091433;28;19936;-66
2023/09/12 06:14:12;;;;;;;;;;;23.50;72.50;;;;;;5093656;28;19920;-66
2023/09/12 06:16:37;;;;;;;;;;;23.50;72.60;;;;;;5102310;28;20018;-66
2023/09/12 06:19:03;;;;;;;;;;;23.40;72.70;;;;;;5110998;28;20340;-65
2023/09/12 06:21:28;;;;;;;;;;;23.50;72.80;;;;;;5075394;28;19966;-65
2023/09/12 06:24:12;;;;;;;;;;;23.50;72.90;;;;;;5057688;28;19934;-65
2023/09/12 06:26:38;;;;;;;;;;;23.50;72.80;;;;;;5085295;28;19963;-66
2023/09/12 06:29:04;;;;;;;;;;;23.50;72.80;;;;;;5091758;27;20452;-66
2023/09/12 06:31:30;;;;;;;;;;;23.60;72.80;;;;;;5095949;28;19930;-68
2023/09/12 06:33:56;;;;;;;;;;;23.60;72.80;;;;;;5081627;28;19982;-66
2023/09/12 06:36:21;;;;;;;;;;;23.60;72.80;;;;;;5094539;28;20029;-66
2023/09/12 06:38:47;;;;;;;;;;;23.70;72.80;;;;;;5095184;28;19932;-65
2023/09/12 06:41:18;;;;;;;;;;;23.60;72.70;;;;;;5096370;28;19923;-66
2023/09/12 06:43:43;;;;;;;;;;;23.60;72.70;;;;;;5108205;27;20590;-65
2023/09/12 06:46:09;;;;;;;;;;;23.60;72.70;;;;;;5093109;28;19927;-65
2023/09/12 06:48:34;;;;;;;;;;;23.70;72.80;;;;;;5072431;28;19980;-66
2023/09/12 06:51:00;;;;;;;;;;;23.70;72.80;;;;;;5097048;27;19924;-65
2023/09/12 06:53:25;;;;;;;;;;;23.70;72.70;;;;;;5095968;28;19939;-66
2023/09/12 06:55:51;;;;;;;;;;;23.70;72.70;;;;;;5095319;28;19920;-70
2023/09/12 06:58:16;;;;;;;;;;;23.70;72.70;;;;;;5094895;27;20523;-66
2023/09/12 07:00:42;;;;;;;;;;;23.70;72.70;;;;;;5095746;27;19924;-66
2023/09/12 07:03:07;;;;;;;;;;;23.70;72.70;;;;;;5095963;28;20253;-66
2023/09/12 07:05:35;;;;;;;;;;;23.70;72.80;;;;;;5080745;28;19920;-66
2023/09/12 07:08:01;;;;;;;;;;;23.70;72.80;;;;;;5111928;27;19927;-66
2023/09/12 07:10:26;;;;;;;;;;;23.60;72.80;;;;;;5076159;28;19946;-66
2023/09/12 07:12:52;;;;;;;;;;;23.60;72.80;;;;;;5072440;28;19920;-66
2023/09/12 07:15:18;;;;;;;;;;;23.70;72.80;;;;;;5094761;28;20572;-66
2023/09/12 07:17:43;;;;;;;;;;;23.60;72.70;;;;;;5074307;28;19927;-66
2023/09/12 07:20:11;;;;;;;;;;;23.60;72.80;;;;;;5095768;28;19942;-66
2023/09/12 07:22:37;;;;;;;;;;;23.60;72.80;;;;;;5096222;28;19955;-66
2023/09/12 07:25:03;;;;;;;;;;;23.60;72.80;;;;;;5079193;28;20032;-66
2023/09/12 07:27:28;;;;;;;;;;;23.60;72.80;;;;;;5094163;28;20370;-66
2023/09/12 07:29:54;;;;;;;;;;;23.60;72.80;;;;;;5087774;27;19931;-66
2023/09/12 07:32:20;;;;;;;;;;;23.60;72.90;;;;;;5079318;28;20286;-66
2023/09/12 07:34:48;;;;;;;;;;;23.60;72.80;;;;;;5082985;28;19959;-66
2023/09/12 07:37:14;;;;;;;;;;;23.50;72.80;;;;;;5084452;28;19920;-67
2023/09/12 07:39:39;;;;;;;;;;;23.50;72.90;;;;;;5094155;27;20370;-66
2023/09/12 07:42:05;;;;;;;;;;;23.50;72.90;;;;;;5078803;28;20035;-66
2023/09/12 07:44:30;;;;;;;;;;;23.50;72.80;;;;;;5075969;28;19924;-66
2023/09/12 07:46:56;;;;;;;;;;;23.50;72.90;;;;;;5096750;27;19924;-66
2023/09/12 07:49:21;;;;;;;;;;;23.50;73.00;;;;;;5093877;28;20033;-67
2023/09/12 07:51:47;;;;;;;;;;;23.50;72.90;;;;;;5107580;27;20006;-68
2023/09/12 07:54:13;;;;;;;;;;;23.50;72.90;;;;;;5092079;28;19942;-70
2023/09/12 07:56:38;;;;;;;;;;;23.50;72.90;;;;;;5080953;28;19950;-68
2023/09/12 07:59:04;;;;;;;;;;;23.60;72.80;;;;;;5075766;28;19920;-67
2023/09/12 08:01:30;;;;;;;;;;;23.60;72.80;;;;;;5095983;28;19920;-68
2023/09/12 08:03:55;;;;;;;;;;;23.60;72.80;;;;;;5094110;28;20022;-67
2023/09/12 08:06:23;;;;;;;;;;;23.70;72.80;;;;;;5074359;28;20572;-69
2023/09/12 08:08:49;;;;;;;;;;;23.70;72.80;;;;;;5077860;28;19924;-71
2023/09/12 08:11:14;;;;;;;;;;;23.70;72.70;;;;;;5071041;28;19924;-69
2023/09/12 08:13:40;;;;;;;;;;;23.70;72.70;;;;;;5074774;28;20015;-67
2023/09/12 08:16:05;;;;;;;;;;;23.70;72.70;;;;;;5080084;27;19981;-69
2023/09/12 08:18:31;;;;;;;;;;;23.70;72.70;;;;;;5072338;28;20287;-71
2023/09/12 08:20:56;;;;;;;;;;;23.80;72.70;;;;;;5091294;28;20383;-69
2023/09/12 08:23:22;;;;;;;;;;;23.80;72.70;;;;;;5104907;27;19924;-67
2023/09/12 08:25:48;;;;;;;;;;;23.80;72.70;;;;;;5076563;27;20395;-67
2023/09/12 08:28:14;;;;;;;;;;;23.80;72.60;;;;;;5093589;27;19977;-66
2023/09/12 08:30:39;;;;;;;;;;;23.80;72.60;;;;;;5075553;28;19920;-76
2023/09/12 08:33:06;;;;;;;;;;;23.90;72.70;;;;;;5081636;27;20367;-68
2023/09/12 08:35:32;;;;;;;;;;;23.90;72.60;;;;;;5080059;27;19921;-69
2023/09/12 08:37:57;;;;;;;;;;;23.90;72.60;;;;;;5095645;27;19935;-69
2023/09/12 08:40:23;;;;;;;;;;;23.90;72.60;;;;;;5077436;27;19938;-69
2023/09/12 08:42:50;;;;;;;;;;;23.90;72.70;;;;;;5076020;27;20299;-71
2023/09/12 08:45:16;;;;;;;;;;;23.80;72.60;;;;;;5108093;27;19930;-69
2023/09/12 08:47:43;;;;;;;;;;;23.80;72.50;;;;;;5105332;27;20336;-69
2023/09/12 08:50:11;;;;;;;;;;;23.80;72.50;;;;;;5073776;28;20418;-69
2023/09/12 08:52:36;;;;;;;;;;;23.90;72.50;;;;;;5088195;27;19934;-69
2023/09/12 08:55:03;;;;;;;;;;;23.90;72.50;;;;;;5076094;28;19931;-70
2023/09/12 08:57:29;;;;;;;;;;;23.90;72.60;;;;;;5096503;27;20004;-68
2023/09/12 08:59:55;;;;;;;;;;;23.90;72.60;;;;;;5083172;28;19966;-70
2023/09/12 09:02:20;;;;;;;;;;;23.90;72.70;;;;;;5074668;28;20006;-69
2023/09/12 09:04:47;;;;;;;;;;;24.00;72.80;;;;;;5105574;27;20511;-69
2023/09/12 09:07:13;;;;;;;;;;;24.00;72.70;;;;;;5076386;28;19923;-68
2023/09/12 09:09:39;;;;;;;;;;;24.00;72.70;;;;;;5090423;27;19954;-68
2023/09/12 09:12:07;;;;;;;;;;;24.00;72.70;;;;;;5061858;28;19923;-68
2023/09/12 09:14:32;;;;;;;;;;;24.10;72.80;;;;;;5071971;28;19928;-71
2023/09/12 09:16:58;;;;;;;;;;;24.10;72.80;;;;;;5078340;28;19927;-70
2023/09/12 09:19:39;;;;;;;;;;;24.10;72.90;;;;;;5096621;27;19948;-71
2023/09/12 09:22:05;;;;;;;;;;;24.10;72.90;;;;;;5077537;28;19924;-68
2023/09/12 09:24:31;;;;;;;;;;;24.20;73.00;;;;;;5089341;27;19919;-69
2023/09/12 09:27:00;;;;;;;;;;;24.10;73.00;;;;;;5074219;28;20370;-68
2023/09/12 09:29:26;;;;;;;;;;;24.20;72.90;;;;;;5070447;28;19963;-69
2023/09/12 09:31:52;;;;;;;;;;;24.10;72.90;;;;;;5096073;28;19920;-70
2023/09/12 09:34:18;;;;;;;;;;;24.10;72.90;;;;;;5066162;28;20003;-71
2023/09/12 09:36:46;;;;;;;;;;;24.10;72.80;;;;;;5068959;28;19928;-68
2023/09/12 09:39:12;;;;;;;;;;;24.10;72.90;;;;;;5069649;28;19925;-68
2023/09/12 09:41:38;;;;;;;;;;;24.10;72.90;;;;;;5070413;28;19928;-69
2023/09/12 09:44:05;;;;;;;;;;;24.10;73.00;;;;;;5068302;28;19930;-65
2023/09/12 09:46:31;;;;;;;;;;;24.10;72.90;;;;;;5072199;28;19928;-68
2023/09/12 09:48:59;;;;;;;;;;;24.20;73.00;;;;;;5068548;28;19934;-67
2023/09/12 09:51:25;;;;;;;;;;;24.20;72.90;;;;;;5072808;28;19924;-68
2023/09/12 09:53:52;;;;;;;;;;;24.20;72.90;;;;;;5073777;28;19924;-71
2023/09/12 09:56:17;;;;;;;;;;;24.20;72.80;;;;;;5076904;28;19930;-68
2023/09/12 09:58:51;;;;;;;;;;;24.20;72.80;;;;;;5075417;28;19924;-66
2023/09/12 10:01:19;;;;;;;;;;;24.20;72.80;;;;;;5101983;27;20034;-67
2023/09/12 10:03:47;;;;;;;;;;;24.30;72.80;;;;;;5067230;28;20298;-67
2023/09/12 10:06:14;;;;;;;;;;;24.30;72.70;;;;;;5077823;28;19924;-67
2023/09/12 10:08:40;;;;;;;;;;;24.40;72.70;;;;;;5075770;28;20322;-67
2023/09/12 10:11:06;;;;;;;;;;;24.30;72.50;;;;;;5070927;28;19925;-67
2023/09/12 10:13:33;;;;;;;;;;;24.30;72.30;;;;;;5078360;28;19924;-67
2023/09/12 10:16:00;;;;;;;;;;;24.30;72.30;;;;;;5075656;28;19942;-68
2023/09/12 10:18:28;;;;;;;;;;;24.30;72.30;;;;;;5070976;28;20589;-68
2023/09/12 10:20:58;;;;;;;;;;;24.30;72.30;;;;;;5079115;28;20416;-67
2023/09/12 10:23:28;;;;;;;;;;;24.20;72.20;;;;;;5074849;28;19966;-66
2023/09/12 10:25:54;;;;;;;;;;;24.20;72.40;;;;;;5102631;27;19939;-66
2023/09/12 10:28:21;;;;;;;;;;;24.20;72.40;;;;;;5069907;28;19935;-67
2023/09/12 10:30:49;;;;;;;;;;;24.30;72.50;;;;;;5076106;28;20025;-66
2023/09/12 10:33:15;;;;;;;;;;;24.30;72.50;;;;;;5071474;28;20383;-69
2023/09/12 10:35:41;;;;;;;;;;;24.30;72.50;;;;;;5064521;28;19935;-67
2023/09/12 10:38:07;;;;;;;;;;;24.30;72.60;;;;;;5072153;28;19955;-66
2023/09/12 10:40:35;;;;;;;;;;;24.30;72.60;;;;;;5101619;27;19928;-67
2023/09/12 10:43:03;;;;;;;;;;;24.30;72.70;;;;;;5075279;28;20242;-67
2023/09/12 10:45:31;;;;;;;;;;;24.30;72.70;;;;;;5074808;28;19928;-67
2023/09/12 10:47:56;;;;;;;;;;;24.30;72.50;;;;;;5073066;28;19926;-67
2023/09/12 10:50:22;;;;;;;;;;;24.30;72.70;;;;;;5066727;28;19924;-68
2023/09/12 10:52:47;;;;;;;;;;;24.40;72.70;;;;;;5072953;28;19986;-66
2023/09/12 10:55:19;;;;;;;;;;;24.50;72.80;;;;;;5071045;28;19928;-67
2023/09/12 10:58:05;;;;;;;;;;;24.50;72.80;;;;;;5073710;28;19979;-71
2023/09/12 11:00:32;;;;;;;;;;;24.50;72.70;;;;;;5073183;28;19955;-67
2023/09/12 11:02:59;;;;;;;;;;;24.50;72.80;;;;;;5073676;28;19933;-67
2023/09/12 11:08:09;;;;;;;;;;;24.60;72.70;;;;;;5078423;27;19934;-71
2023/09/12 11:10:34;;;;;;;;;;;24.70;72.80;;;;;;5064510;28;20365;-66
2023/09/12 11:13:00;;;;;;;;;;;24.60;72.70;;;;;;5060947;28;20016;-74
2023/09/12 11:15:26;;;;;;;;;;;24.60;72.70;;;;;;5062442;28;19928;-72
2023/09/12 11:18:07;;;;;;;;;;;24.60;72.50;;;;;;5060740;28;19931;-70
2023/09/12 11:20:49;;;;;;;;;;;24.60;72.60;;;;;;5091347;28;19924;-76
2023/09/12 11:23:14;;;;;;;;;;;24.60;72.50;;;;;;5092641;28;19935;-67
2023/09/12 11:25:40;;;;;;;;;;;24.60;72.50;;;;;;5063182;28;19944;-75
2023/09/12 11:28:05;;;;;;;;;;;24.70;72.60;;;;;;5061549;28;19933;-69
2023/09/12 11:30:31;;;;;;;;;;;24.60;72.50;;;;;;5044903;28;19928;-70
2023/09/12 11:32:57;;;;;;;;;;;24.70;72.70;;;;;;5091460;28;19925;-66
2023/09/12 11:35:24;;;;;;;;;;;24.70;72.70;;;;;;5095911;28;19975;-66
2023/09/12 11:37:51;;;;;;;;;;;24.70;72.70;;;;;;5090936;28;20010;-66
2023/09/12 11:40:17;;;;;;;;;;;24.70;72.70;;;;;;5050786;28;20374;-67
2023/09/12 11:42:43;;;;;;;;;;;24.70;72.80;;;;;;5058374;28;19931;-70
2023/09/12 11:45:10;;;;;;;;;;;24.70;72.70;;;;;;5058065;28;19924;-71
2023/09/12 11:47:42;;;;;;;;;;;24.70;72.70;;;;;;5057802;28;19951;-69
2023/09/12 11:50:09;;;;;;;;;;;24.70;72.60;;;;;;5084898;28;19928;-70
2023/09/12 11:52:36;;;;;;;;;;;24.70;72.70;;;;;;5071673;28;20142;-67
2023/09/12 11:55:01;;;;;;;;;;;24.80;72.80;;;;;;5060194;28;19928;-68
2023/09/12 11:57:27;;;;;;;;;;;24.80;72.80;;;;;;5056365;28;19924;-67
2023/09/12 11:59:52;;;;;;;;;;;24.80;72.70;;;;;;5058810;28;19978;-70
2023/09/12 12:02:18;;;;;;;;;;;24.80;72.70;;;;;;5055485;28;20212;-69
2023/09/12 12:04:44;;;;;;;;;;;24.80;72.80;;;;;;5060649;28;19928;-72
2023/09/12 12:07:10;;;;;;;;;;;24.80;72.80;;;;;;5050694;28;20268;-68
2023/09/12 12:09:36;;;;;;;;;;;24.80;72.80;;;;;;5044770;28;19983;-66
2023/09/12 12:12:09;;;;;;;;;;;24.90;72.80;;;;;;5048522;28;20047;-69
2023/09/12 12:14:35;;;;;;;;;;;24.90;72.90;;;;;;5054739;28;19932;-69
2023/09/12 12:17:09;;;;;;;;;;;24.90;72.90;;;;;;5089257;28;20171;-68
2023/09/12 12:19:36;;;;;;;;;;;24.80;72.80;;;;;;5044534;28;19931;-69
2023/09/12 12:22:02;;;;;;;;;;;24.90;72.80;;;;;;5046177;28;20341;-68
2023/09/12 12:24:36;;;;;;;;;;;24.90;72.90;;;;;;5044328;28;20028;-69
2023/09/12 12:27:03;;;;;;;;;;;25.00;72.90;;;;;;5074384;28;19939;-67
2023/09/12 12:29:28;;;;;;;;;;;25.00;72.90;;;;;;5047573;28;19931;-69
2023/09/12 12:31:58;;;;;;;;;;;25.00;72.90;;;;;;5071040;28;19929;-70
2023/09/12 12:34:24;;;;;;;;;;;25.00;72.90;;;;;;5049354;28;19932;-71
2023/09/12 12:36:49;;;;;;;;;;;25.00;72.90;;;;;;5043086;28;19924;-69
2023/09/12 12:39:16;;;;;;;;;;;25.00;72.70;;;;;;5055846;28;19971;-70
2023/09/12 12:41:42;;;;;;;;;;;25.00;72.70;;;;;;5038103;28;19925;-69
2023/09/12 12:44:07;;;;;;;;;;;25.00;72.70;;;;;;5071238;28;20311;-73
2023/09/12 12:46:33;;;;;;;;;;;25.00;72.70;;;;;;5067885;28;20137;-70
2023/09/12 12:48:59;;;;;;;;;;;25.00;72.40;;;;;;5048381;28;19936;-74
2023/09/12 12:51:25;;;;;;;;;;;25.00;72.40;;;;;;5045259;28;19967;-73
2023/09/12 12:53:52;;;;;;;;;;;25.00;72.30;;;;;;5075270;28;19928;-74
2023/09/12 12:56:19;;;;;;;;;;;25.00;72.30;;;;;;5040262;28;19948;-74
2023/09/12 12:58:45;;;;;;;;;;;25.00;72.20;;;;;;5071573;28;19925;-70
2023/09/12 13:01:11;;;;;;;;;;;25.00;72.10;;;;;;5047280;28;20339;-69
2023/09/12 13:03:36;;;;;;;;;;;25.00;71.90;;;;;;5085173;28;19927;-66
2023/09/12 13:06:01;;;;;;;;;;;25.00;71.90;;;;;;5076636;28;19932;-66
2023/09/12 13:08:27;;;;;;;;;;;25.00;71.80;;;;;;5046145;28;19970;-71
2023/09/12 13:10:52;;;;;;;;;;;25.00;71.80;;;;;;5048089;28;19920;-66
2023/09/12 13:13:18;;;;;;;;;;;25.00;71.50;;;;;;5062745;28;19967;-69
2023/09/12 13:15:43;;;;;;;;;;;25.00;71.40;;;;;;5059766;28;20136;-73
2023/09/12 13:18:09;;;;;;;;;;;25.00;71.20;;;;;;5053307;28;19968;-67
2023/09/12 13:20:35;;;;;;;;;;;25.00;71.50;;;;;;5040992;28;19977;-69
2023/09/12 13:23:00;;;;;;;;;;;25.00;71.70;;;;;;5042984;28;19925;-69
2023/09/12 13:25:26;;;;;;;;;;;25.00;71.80;;;;;;5076837;28;19921;-67
2023/09/12 13:27:51;;;;;;;;;;;25.00;71.50;;;;;;5050655;28;20337;-70
2023/09/12 13:30:17;;;;;;;;;;;25.00;71.10;;;;;;5054067;28;19935;-66
2023/09/12 13:32:42;;;;;;;;;;;25.00;71.00;;;;;;5068746;28;19928;-66
2023/09/12 13:35:08;;;;;;;;;;;25.00;70.80;;;;;;5053772;28;19924;-66
2023/09/12 13:37:33;;;;;;;;;;;25.00;70.60;;;;;;5051372;28;19946;-71
2023/09/12 13:39:59;;;;;;;;;;;25.00;70.50;;;;;;5049827;28;19928;-66
2023/09/12 13:42:28;;;;;;;;;;;25.00;70.50;;;;;;5079735;28;20421;-70
2023/09/12 13:44:53;;;;;;;;;;;25.00;70.30;;;;;;5074413;28;20365;-66
2023/09/12 13:47:22;;;;;;;;;;;25.00;70.30;;;;;;5055003;28;19958;-67
2023/09/12 13:49:47;;;;;;;;;;;25.00;70.10;;;;;;5048594;28;19924;-66
2023/09/12 13:52:14;;;;;;;;;;;25.10;70.10;;;;;;5050461;28;20045;-66
2023/09/12 13:54:40;;;;;;;;;;;25.00;70.00;;;;;;5062915;28;19950;-72
2023/09/12 13:57:05;;;;;;;;;;;25.10;70.00;;;;;;5064265;28;19928;-66
2023/09/12 13:59:31;;;;;;;;;;;25.10;69.80;;;;;;5073004;28;19924;-70
2023/09/12 14:01:56;;;;;;;;;;;25.00;69.80;;;;;;5047740;28;20429;-66
2023/09/12 14:04:22;;;;;;;;;;;25.00;69.70;;;;;;5073709;28;19920;-67
2023/09/12 14:06:47;;;;;;;;;;;25.00;69.90;;;;;;5048690;28;19935;-70
2023/09/12 14:09:13;;;;;;;;;;;24.90;69.90;;;;;;5060229;28;19929;-66
2023/09/12 14:11:39;;;;;;;;;;;24.90;70.10;;;;;;5064665;28;19920;-67
2023/09/12 14:14:05;;;;;;;;;;;24.80;70.10;;;;;;5073209;28;19960;-67
2023/09/12 14:16:30;;;;;;;;;;;24.80;70.20;;;;;;5051863;28;20032;-66
2023/09/12 14:18:55;;;;;;;;;;;24.80;70.30;;;;;;5055610;28;19924;-67